sensor_id;sensor_type;location;lat;lon;timestamp;P1;durP1;ratioP1;P2;durP2;ratioP2
72284;SDS011;60220;53.552;10.092;2023-05-19T00:02:15;4.03;;;3.13;;
72284;SDS011;60220;53.552;10.092;2023-05-19T00:04:45;5.70;;;3.20;;
72284;SDS011;60220;53.552;10.092;2023-05-19T00:07:14;4.03;;;2.92;;
72284;SDS011;60220;53.552;10.092;2023-05-19T00:09:44;3.58;;;2.88;;
72284;SDS011;60220;53.552;10.092;2023-05-19T00:12:13;5.22;;;3.15;;
72284;SDS011;60220;53.552;10.092;2023-05-19T00:14:40;5.15;;;3.47;;
72284;SDS011;60220;53.552;10.092;2023-05-19T00:17:07;8.52;;;2.97;;
72284;SDS011;60220;53.552;10.092;2023-05-19T00:19:34;4.38;;;3.30;;
72284;SDS011;60220;53.552;10.092;2023-05-19T00:22:02;11.25;;;3.65;;
72284;SDS011;60220;53.552;10.092;2023-05-19T00:24:29;11.80;;;4.00;;
72284;SDS011;60220;53.552;10.092;2023-05-19T00:26:55;10.23;;;4.35;;
72284;SDS011;60220;53.552;10.092;2023-05-19T00:29:23;4.22;;;3.10;;
72284;SDS011;60220;53.552;10.092;2023-05-19T00:31:50;4.43;;;3.13;;
72284;SDS011;60220;53.552;10.092;2023-05-19T00:34:19;6.57;;;3.70;;
72284;SDS011;60220;53.552;10.092;2023-05-19T00:36:45;6.13;;;3.38;;
72284;SDS011;60220;53.552;10.092;2023-05-19T00:39:12;7.55;;;3.72;;
72284;SDS011;60220;53.552;10.092;2023-05-19T00:41:39;6.18;;;3.75;;
72284;SDS011;60220;53.552;10.092;2023-05-19T00:44:08;7.68;;;4.20;;
72284;SDS011;60220;53.552;10.092;2023-05-19T00:46:36;8.38;;;3.97;;
72284;SDS011;60220;53.552;10.092;2023-05-19T00:49:03;5.80;;;3.70;;
72284;SDS011;60220;53.552;10.092;2023-05-19T00:51:29;4.18;;;3.22;;
72284;SDS011;60220;53.552;10.092;2023-05-19T00:53:56;7.00;;;4.03;;
72284;SDS011;60220;53.552;10.092;2023-05-19T00:56:23;4.53;;;3.08;;
72284;SDS011;60220;53.552;10.092;2023-05-19T00:58:50;4.10;;;3.05;;
72284;SDS011;60220;53.552;10.092;2023-05-19T01:01:17;7.75;;;3.63;;
72284;SDS011;60220;53.552;10.092;2023-05-19T01:03:47;3.78;;;3.35;;
72284;SDS011;60220;53.552;10.092;2023-05-19T01:06:16;6.55;;;3.42;;
72284;SDS011;60220;53.552;10.092;2023-05-19T01:08:44;7.25;;;3.78;;
72284;SDS011;60220;53.552;10.092;2023-05-19T01:11:11;6.45;;;4.20;;
72284;SDS011;60220;53.552;10.092;2023-05-19T01:13:40;8.82;;;2.97;;
72284;SDS011;60220;53.552;10.092;2023-05-19T01:16:09;4.22;;;3.55;;
72284;SDS011;60220;53.552;10.092;2023-05-19T01:18:41;4.22;;;3.10;;
72284;SDS011;60220;53.552;10.092;2023-05-19T01:21:29;6.38;;;3.13;;
72284;SDS011;60220;53.552;10.092;2023-05-19T01:24:24;4.57;;;3.00;;
72284;SDS011;60220;53.552;10.092;2023-05-19T01:27:23;4.32;;;3.38;;
72284;SDS011;60220;53.552;10.092;2023-05-19T01:30:19;11.57;;;3.55;;
72284;SDS011;60220;53.552;10.092;2023-05-19T01:32:56;6.00;;;3.50;;
72284;SDS011;60220;53.552;10.092;2023-05-19T01:35:25;3.35;;;2.92;;
72284;SDS011;60220;53.552;10.092;2023-05-19T01:37:54;4.57;;;3.00;;
72284;SDS011;60220;53.552;10.092;2023-05-19T01:40:22;6.22;;;3.40;;
72284;SDS011;60220;53.552;10.092;2023-05-19T01:42:52;4.32;;;3.30;;
72284;SDS011;60220;53.552;10.092;2023-05-19T01:45:22;4.07;;;3.10;;
72284;SDS011;60220;53.552;10.092;2023-05-19T01:47:50;7.55;;;3.45;;
72284;SDS011;60220;53.552;10.092;2023-05-19T01:50:19;5.15;;;3.10;;
72284;SDS011;60220;53.552;10.092;2023-05-19T01:52:49;6.20;;;3.35;;
72284;SDS011;60220;53.552;10.092;2023-05-19T01:55:16;7.63;;;3.70;;
72284;SDS011;60220;53.552;10.092;2023-05-19T01:57:45;4.20;;;3.35;;
72284;SDS011;60220;53.552;10.092;2023-05-19T02:00:20;7.03;;;2.88;;
72284;SDS011;60220;53.552;10.092;2023-05-19T02:02:56;3.97;;;3.03;;
72284;SDS011;60220;53.552;10.092;2023-05-19T02:05:33;4.35;;;3.22;;
72284;SDS011;60220;53.552;10.092;2023-05-19T02:08:08;4.82;;;2.95;;
72284;SDS011;60220;53.552;10.092;2023-05-19T02:10:41;8.43;;;3.35;;
72284;SDS011;60220;53.552;10.092;2023-05-19T02:13:15;6.68;;;3.22;;
72284;SDS011;60220;53.552;10.092;2023-05-19T02:15:46;3.97;;;3.10;;
72284;SDS011;60220;53.552;10.092;2023-05-19T02:18:14;6.00;;;3.47;;
72284;SDS011;60220;53.552;10.092;2023-05-19T02:20:44;8.02;;;3.70;;
72284;SDS011;60220;53.552;10.092;2023-05-19T02:23:11;5.15;;;3.17;;
72284;SDS011;60220;53.552;10.092;2023-05-19T02:25:37;4.10;;;3.17;;
72284;SDS011;60220;53.552;10.092;2023-05-19T02:28:04;6.68;;;3.33;;
72284;SDS011;60220;53.552;10.092;2023-05-19T02:30:30;4.72;;;3.40;;
72284;SDS011;60220;53.552;10.092;2023-05-19T02:33:02;4.00;;;2.97;;
72284;SDS011;60220;53.552;10.092;2023-05-19T02:35:30;8.40;;;3.58;;
72284;SDS011;60220;53.552;10.092;2023-05-19T02:38:00;3.15;;;2.85;;
72284;SDS011;60220;53.552;10.092;2023-05-19T02:40:28;4.90;;;3.10;;
72284;SDS011;60220;53.552;10.092;2023-05-19T02:42:55;4.68;;;2.97;;
72284;SDS011;60220;53.552;10.092;2023-05-19T02:45:21;17.02;;;3.85;;
72284;SDS011;60220;53.552;10.092;2023-05-19T02:47:48;7.25;;;3.22;;
72284;SDS011;60220;53.552;10.092;2023-05-19T02:50:16;10.43;;;3.45;;
72284;SDS011;60220;53.552;10.092;2023-05-19T02:52:43;3.42;;;3.13;;
72284;SDS011;60220;53.552;10.092;2023-05-19T02:55:09;6.45;;;3.50;;
72284;SDS011;60220;53.552;10.092;2023-05-19T02:57:41;8.00;;;3.55;;
72284;SDS011;60220;53.552;10.092;2023-05-19T03:00:08;6.70;;;3.30;;
72284;SDS011;60220;53.552;10.092;2023-05-19T03:02:35;5.03;;;3.60;;
72284;SDS011;60220;53.552;10.092;2023-05-19T03:05:02;4.82;;;3.40;;
72284;SDS011;60220;53.552;10.092;2023-05-19T03:07:30;4.88;;;3.10;;
72284;SDS011;60220;53.552;10.092;2023-05-19T03:09:57;8.88;;;3.25;;
72284;SDS011;60220;53.552;10.092;2023-05-19T03:12:27;4.25;;;3.13;;
72284;SDS011;60220;53.552;10.092;2023-05-19T03:14:54;10.10;;;3.92;;
72284;SDS011;60220;53.552;10.092;2023-05-19T03:17:21;5.22;;;3.35;;
72284;SDS011;60220;53.552;10.092;2023-05-19T03:19:47;8.40;;;3.30;;
72284;SDS011;60220;53.552;10.092;2023-05-19T03:22:15;6.47;;;3.63;;
72284;SDS011;60220;53.552;10.092;2023-05-19T03:24:44;5.97;;;3.60;;
72284;SDS011;60220;53.552;10.092;2023-05-19T03:27:10;4.70;;;3.63;;
72284;SDS011;60220;53.552;10.092;2023-05-19T03:29:37;4.78;;;3.38;;
72284;SDS011;60220;53.552;10.092;2023-05-19T03:32:04;4.63;;;3.50;;
72284;SDS011;60220;53.552;10.092;2023-05-19T03:34:30;3.83;;;3.40;;
72284;SDS011;60220;53.552;10.092;2023-05-19T03:36:57;4.38;;;3.40;;
72284;SDS011;60220;53.552;10.092;2023-05-19T03:39:27;13.43;;;5.57;;
72284;SDS011;60220;53.552;10.092;2023-05-19T03:41:55;5.57;;;3.72;;
72284;SDS011;60220;53.552;10.092;2023-05-19T03:44:21;11.02;;;5.63;;
72284;SDS011;60220;53.552;10.092;2023-05-19T03:46:48;3.45;;;3.15;;
72284;SDS011;60220;53.552;10.092;2023-05-19T03:49:15;11.40;;;4.88;;
72284;SDS011;60220;53.552;10.092;2023-05-19T03:51:43;5.93;;;4.82;;
72284;SDS011;60220;53.552;10.092;2023-05-19T03:54:11;5.88;;;3.55;;
72284;SDS011;60220;53.552;10.092;2023-05-19T03:56:38;9.07;;;4.15;;
72284;SDS011;60220;53.552;10.092;2023-05-19T03:59:06;13.00;;;5.97;;
72284;SDS011;60220;53.552;10.092;2023-05-19T04:01:34;15.15;;;6.90;;
72284;SDS011;60220;53.552;10.092;2023-05-19T04:04:03;9.95;;;5.35;;
72284;SDS011;60220;53.552;10.092;2023-05-19T04:06:30;6.05;;;4.82;;
72284;SDS011;60220;53.552;10.092;2023-05-19T04:08:58;12.20;;;6.93;;
72284;SDS011;60220;53.552;10.092;2023-05-19T04:11:27;6.53;;;4.18;;
72284;SDS011;60220;53.552;10.092;2023-05-19T04:13:53;4.22;;;3.70;;
72284;SDS011;60220;53.552;10.092;2023-05-19T04:16:21;7.25;;;3.60;;
72284;SDS011;60220;53.552;10.092;2023-05-19T04:18:48;12.48;;;6.30;;
72284;SDS011;60220;53.552;10.092;2023-05-19T04:21:17;12.70;;;5.53;;
72284;SDS011;60220;53.552;10.092;2023-05-19T04:23:46;5.88;;;3.90;;
72284;SDS011;60220;53.552;10.092;2023-05-19T04:26:13;14.95;;;7.95;;
72284;SDS011;60220;53.552;10.092;2023-05-19T04:28:40;13.35;;;5.20;;
72284;SDS011;60220;53.552;10.092;2023-05-19T04:31:08;7.10;;;3.15;;
72284;SDS011;60220;53.552;10.092;2023-05-19T04:33:38;5.70;;;3.55;;
72284;SDS011;60220;53.552;10.092;2023-05-19T04:36:05;6.47;;;2.78;;
72284;SDS011;60220;53.552;10.092;2023-05-19T04:38:34;6.28;;;3.40;;
72284;SDS011;60220;53.552;10.092;2023-05-19T04:41:06;10.35;;;3.60;;
72284;SDS011;60220;53.552;10.092;2023-05-19T04:43:34;8.32;;;3.60;;
72284;SDS011;60220;53.552;10.092;2023-05-19T04:46:07;6.50;;;3.60;;
72284;SDS011;60220;53.552;10.092;2023-05-19T04:48:37;9.95;;;4.53;;
72284;SDS011;60220;53.552;10.092;2023-05-19T04:51:07;6.80;;;3.30;;
72284;SDS011;60220;53.552;10.092;2023-05-19T04:53:36;12.00;;;7.05;;
72284;SDS011;60220;53.552;10.092;2023-05-19T04:56:04;9.57;;;6.13;;
72284;SDS011;60220;53.552;10.092;2023-05-19T04:58:31;8.30;;;4.97;;
72284;SDS011;60220;53.552;10.092;2023-05-19T05:00:58;6.50;;;3.83;;
72284;SDS011;60220;53.552;10.092;2023-05-19T05:03:24;3.92;;;3.38;;
72284;SDS011;60220;53.552;10.092;2023-05-19T05:05:54;10.05;;;5.82;;
72284;SDS011;60220;53.552;10.092;2023-05-19T05:08:22;6.95;;;3.60;;
72284;SDS011;60220;53.552;10.092;2023-05-19T05:10:49;4.78;;;3.70;;
72284;SDS011;60220;53.552;10.092;2023-05-19T05:13:17;7.43;;;3.90;;
72284;SDS011;60220;53.552;10.092;2023-05-19T05:15:47;7.03;;;3.70;;
72284;SDS011;60220;53.552;10.092;2023-05-19T05:18:16;4.25;;;2.88;;
72284;SDS011;60220;53.552;10.092;2023-05-19T05:20:43;9.13;;;3.50;;
72284;SDS011;60220;53.552;10.092;2023-05-19T05:23:13;8.50;;;4.28;;
72284;SDS011;60220;53.552;10.092;2023-05-19T05:25:41;3.63;;;3.33;;
72284;SDS011;60220;53.552;10.092;2023-05-19T05:28:08;6.80;;;3.00;;
72284;SDS011;60220;53.552;10.092;2023-05-19T05:30:37;5.25;;;3.03;;
72284;SDS011;60220;53.552;10.092;2023-05-19T05:33:05;3.20;;;2.97;;
72284;SDS011;60220;53.552;10.092;2023-05-19T05:35:34;4.40;;;3.03;;
72284;SDS011;60220;53.552;10.092;2023-05-19T05:38:03;7.60;;;3.08;;
72284;SDS011;60220;53.552;10.092;2023-05-19T05:40:31;4.75;;;3.35;;
72284;SDS011;60220;53.552;10.092;2023-05-19T05:42:58;7.22;;;3.67;;
72284;SDS011;60220;53.552;10.092;2023-05-19T05:45:25;5.45;;;3.00;;
72284;SDS011;60220;53.552;10.092;2023-05-19T05:47:52;3.92;;;2.70;;
72284;SDS011;60220;53.552;10.092;2023-05-19T05:50:19;7.60;;;3.88;;
72284;SDS011;60220;53.552;10.092;2023-05-19T05:52:48;5.28;;;3.13;;
72284;SDS011;60220;53.552;10.092;2023-05-19T05:55:17;8.15;;;3.30;;
72284;SDS011;60220;53.552;10.092;2023-05-19T05:57:45;6.05;;;2.83;;
72284;SDS011;60220;53.552;10.092;2023-05-19T06:00:13;5.32;;;3.13;;
72284;SDS011;60220;53.552;10.092;2023-05-19T06:02:41;4.55;;;3.10;;
72284;SDS011;60220;53.552;10.092;2023-05-19T06:05:10;7.78;;;2.88;;
72284;SDS011;60220;53.552;10.092;2023-05-19T06:07:38;8.13;;;2.63;;
72284;SDS011;60220;53.552;10.092;2023-05-19T06:10:05;3.80;;;2.50;;
72284;SDS011;60220;53.552;10.092;2023-05-19T06:12:32;7.40;;;2.88;;
72284;SDS011;60220;53.552;10.092;2023-05-19T06:15:01;7.28;;;2.67;;
72284;SDS011;60220;53.552;10.092;2023-05-19T06:17:28;4.65;;;2.53;;
72284;SDS011;60220;53.552;10.092;2023-05-19T06:19:55;5.20;;;2.85;;
72284;SDS011;60220;53.552;10.092;2023-05-19T06:22:24;5.43;;;2.30;;
72284;SDS011;60220;53.552;10.092;2023-05-19T06:24:51;3.50;;;2.88;;
72284;SDS011;60220;53.552;10.092;2023-05-19T06:27:18;3.83;;;2.80;;
72284;SDS011;60220;53.552;10.092;2023-05-19T06:29:47;5.40;;;2.78;;
72284;SDS011;60220;53.552;10.092;2023-05-19T06:32:17;3.15;;;2.42;;
72284;SDS011;60220;53.552;10.092;2023-05-19T06:34:44;3.47;;;2.25;;
72284;SDS011;60220;53.552;10.092;2023-05-19T06:37:10;5.93;;;2.25;;
72284;SDS011;60220;53.552;10.092;2023-05-19T06:39:38;5.40;;;2.70;;
72284;SDS011;60220;53.552;10.092;2023-05-19T06:42:05;3.63;;;2.28;;
72284;SDS011;60220;53.552;10.092;2023-05-19T06:44:34;5.95;;;2.47;;
72284;SDS011;60220;53.552;10.092;2023-05-19T06:47:01;7.65;;;2.40;;
72284;SDS011;60220;53.552;10.092;2023-05-19T06:49:29;7.68;;;3.05;;
72284;SDS011;60220;53.552;10.092;2023-05-19T06:51:55;4.57;;;2.10;;
72284;SDS011;60220;53.552;10.092;2023-05-19T06:54:24;4.35;;;2.05;;
72284;SDS011;60220;53.552;10.092;2023-05-19T06:56:51;7.25;;;2.45;;
72284;SDS011;60220;53.552;10.092;2023-05-19T06:59:18;4.15;;;1.63;;
72284;SDS011;60220;53.552;10.092;2023-05-19T07:01:48;2.95;;;2.00;;
72284;SDS011;60220;53.552;10.092;2023-05-19T07:04:17;4.25;;;1.63;;
72284;SDS011;60220;53.552;10.092;2023-05-19T07:06:47;6.55;;;1.67;;
72284;SDS011;60220;53.552;10.092;2023-05-19T07:09:14;6.15;;;1.33;;
72284;SDS011;60220;53.552;10.092;2023-05-19T07:11:41;5.82;;;1.42;;
72284;SDS011;60220;53.552;10.092;2023-05-19T07:14:14;4.75;;;1.13;;
72284;SDS011;60220;53.552;10.092;2023-05-19T07:16:43;4.28;;;1.33;;
72284;SDS011;60220;53.552;10.092;2023-05-19T07:19:10;2.72;;;1.17;;
72284;SDS011;60220;53.552;10.092;2023-05-19T07:21:37;4.15;;;1.00;;
72284;SDS011;60220;53.552;10.092;2023-05-19T07:24:05;4.63;;;1.38;;
72284;SDS011;60220;53.552;10.092;2023-05-19T07:26:34;3.95;;;1.33;;
72284;SDS011;60220;53.552;10.092;2023-05-19T07:29:01;1.00;;;0.70;;
72284;SDS011;60220;53.552;10.092;2023-05-19T07:31:27;4.65;;;1.65;;
72284;SDS011;60220;53.552;10.092;2023-05-19T07:33:54;3.10;;;1.48;;
72284;SDS011;60220;53.552;10.092;2023-05-19T07:36:21;2.17;;;1.13;;
72284;SDS011;60220;53.552;10.092;2023-05-19T07:38:48;3.63;;;1.13;;
72284;SDS011;60220;53.552;10.092;2023-05-19T07:41:16;5.20;;;1.40;;
72284;SDS011;60220;53.552;10.092;2023-05-19T07:43:45;3.25;;;1.08;;
72284;SDS011;60220;53.552;10.092;2023-05-19T07:46:11;4.65;;;1.30;;
72284;SDS011;60220;53.552;10.092;2023-05-19T07:48:38;3.17;;;1.10;;
72284;SDS011;60220;53.552;10.092;2023-05-19T07:51:07;3.10;;;1.20;;
72284;SDS011;60220;53.552;10.092;2023-05-19T07:53:34;3.42;;;1.05;;
72284;SDS011;60220;53.552;10.092;2023-05-19T07:56:01;2.47;;;1.20;;
72284;SDS011;60220;53.552;10.092;2023-05-19T07:58:31;2.83;;;1.17;;
72284;SDS011;60220;53.552;10.092;2023-05-19T08:00:58;3.53;;;1.02;;
72284;SDS011;60220;53.552;10.092;2023-05-19T08:03:25;5.93;;;1.00;;
72284;SDS011;60220;53.552;10.092;2023-05-19T08:05:55;2.58;;;0.90;;
72284;SDS011;60220;53.552;10.092;2023-05-19T08:08:21;1.52;;;1.00;;
72284;SDS011;60220;53.552;10.092;2023-05-19T08:10:51;1.75;;;1.00;;
72284;SDS011;60220;53.552;10.092;2023-05-19T08:13:17;4.03;;;1.08;;
72284;SDS011;60220;53.552;10.092;2023-05-19T08:15:46;2.28;;;1.30;;
72284;SDS011;60220;53.552;10.092;2023-05-19T08:18:15;2.15;;;0.80;;
72284;SDS011;60220;53.552;10.092;2023-05-19T08:20:43;3.95;;;1.40;;
72284;SDS011;60220;53.552;10.092;2023-05-19T08:23:10;4.40;;;1.25;;
72284;SDS011;60220;53.552;10.092;2023-05-19T08:25:37;1.90;;;1.08;;
72284;SDS011;60220;53.552;10.092;2023-05-19T08:28:04;3.97;;;0.80;;
72284;SDS011;60220;53.552;10.092;2023-05-19T08:30:31;3.88;;;1.00;;
72284;SDS011;60220;53.552;10.092;2023-05-19T08:33:01;1.40;;;1.13;;
72284;SDS011;60220;53.552;10.092;2023-05-19T08:35:28;3.42;;;0.77;;
72284;SDS011;60220;53.552;10.092;2023-05-19T08:37:55;2.85;;;1.20;;
72284;SDS011;60220;53.552;10.092;2023-05-19T08:40:21;2.60;;;0.95;;
72284;SDS011;60220;53.552;10.092;2023-05-19T08:42:48;4.93;;;1.70;;
72284;SDS011;60220;53.552;10.092;2023-05-19T08:45:15;4.50;;;1.00;;
72284;SDS011;60220;53.552;10.092;2023-05-19T08:47:44;3.42;;;1.02;;
72284;SDS011;60220;53.552;10.092;2023-05-19T08:50:16;2.63;;;1.10;;
72284;SDS011;60220;53.552;10.092;2023-05-19T08:52:50;4.18;;;1.17;;
72284;SDS011;60220;53.552;10.092;2023-05-19T08:55:20;5.10;;;1.15;;
72284;SDS011;60220;53.552;10.092;2023-05-19T08:57:53;3.67;;;1.25;;
72284;SDS011;60220;53.552;10.092;2023-05-19T09:00:21;1.83;;;0.80;;
72284;SDS011;60220;53.552;10.092;2023-05-19T09:02:48;2.42;;;0.80;;
72284;SDS011;60220;53.552;10.092;2023-05-19T09:05:17;3.90;;;0.90;;
72284;SDS011;60220;53.552;10.092;2023-05-19T09:07:44;5.10;;;1.30;;
72284;SDS011;60220;53.552;10.092;2023-05-19T09:10:12;4.95;;;1.30;;
72284;SDS011;60220;53.552;10.092;2023-05-19T09:12:40;3.03;;;0.93;;
72284;SDS011;60220;53.552;10.092;2023-05-19T09:15:09;4.65;;;2.33;;
72284;SDS011;60220;53.552;10.092;2023-05-19T09:17:37;2.33;;;1.05;;
72284;SDS011;60220;53.552;10.092;2023-05-19T09:20:04;2.85;;;1.25;;
72284;SDS011;60220;53.552;10.092;2023-05-19T09:22:40;3.95;;;1.00;;
72284;SDS011;60220;53.552;10.092;2023-05-19T09:25:18;6.00;;;1.73;;
72284;SDS011;60220;53.552;10.092;2023-05-19T09:27:47;4.40;;;1.20;;
72284;SDS011;60220;53.552;10.092;2023-05-19T09:30:14;2.35;;;1.33;;
72284;SDS011;60220;53.552;10.092;2023-05-19T09:32:42;2.75;;;0.90;;
72284;SDS011;60220;53.552;10.092;2023-05-19T09:35:09;3.55;;;1.02;;
72284;SDS011;60220;53.552;10.092;2023-05-19T09:37:42;5.63;;;1.02;;
72284;SDS011;60220;53.552;10.092;2023-05-19T09:40:09;2.72;;;1.10;;
72284;SDS011;60220;53.552;10.092;2023-05-19T09:42:36;1.85;;;0.88;;
72284;SDS011;60220;53.552;10.092;2023-05-19T09:45:04;2.65;;;1.08;;
72284;SDS011;60220;53.552;10.092;2023-05-19T09:47:32;5.72;;;1.98;;
72284;SDS011;60220;53.552;10.092;2023-05-19T09:50:00;9.10;;;3.63;;
72284;SDS011;60220;53.552;10.092;2023-05-19T09:52:28;6.18;;;2.47;;
72284;SDS011;60220;53.552;10.092;2023-05-19T09:54:56;4.95;;;1.05;;
72284;SDS011;60220;53.552;10.092;2023-05-19T09:57:24;5.18;;;1.95;;
72284;SDS011;60220;53.552;10.092;2023-05-19T09:59:55;5.53;;;1.02;;
72284;SDS011;60220;53.552;10.092;2023-05-19T10:02:23;5.70;;;1.02;;
72284;SDS011;60220;53.552;10.092;2023-05-19T10:04:51;5.00;;;1.25;;
72284;SDS011;60220;53.552;10.092;2023-05-19T10:07:21;2.83;;;0.60;;
72284;SDS011;60220;53.552;10.092;2023-05-19T10:09:49;6.20;;;2.08;;
72284;SDS011;60220;53.552;10.092;2023-05-19T10:12:21;2.80;;;1.02;;
72284;SDS011;60220;53.552;10.092;2023-05-19T10:14:51;6.20;;;1.25;;
72284;SDS011;60220;53.552;10.092;2023-05-19T10:17:20;3.80;;;1.27;;
72284;SDS011;60220;53.552;10.092;2023-05-19T10:19:49;1.90;;;0.90;;
72284;SDS011;60220;53.552;10.092;2023-05-19T10:22:20;3.75;;;1.63;;
72284;SDS011;60220;53.552;10.092;2023-05-19T10:24:47;3.30;;;0.65;;
72284;SDS011;60220;53.552;10.092;2023-05-19T10:27:14;3.10;;;1.02;;
72284;SDS011;60220;53.552;10.092;2023-05-19T10:29:47;3.80;;;1.10;;
72284;SDS011;60220;53.552;10.092;2023-05-19T10:32:16;1.27;;;0.98;;
72284;SDS011;60220;53.552;10.092;2023-05-19T10:34:52;4.07;;;1.40;;
72284;SDS011;60220;53.552;10.092;2023-05-19T10:37:36;2.50;;;0.95;;
72284;SDS011;60220;53.552;10.092;2023-05-19T10:40:10;2.70;;;0.80;;
72284;SDS011;60220;53.552;10.092;2023-05-19T10:42:46;2.13;;;1.15;;
72284;SDS011;60220;53.552;10.092;2023-05-19T10:45:25;5.40;;;1.13;;
72284;SDS011;60220;53.552;10.092;2023-05-19T10:47:55;1.52;;;0.95;;
72284;SDS011;60220;53.552;10.092;2023-05-19T10:50:22;3.88;;;0.80;;
72284;SDS011;60220;53.552;10.092;2023-05-19T10:52:51;3.22;;;0.85;;
72284;SDS011;60220;53.552;10.092;2023-05-19T10:58:11;4.85;;;1.02;;
72284;SDS011;60220;53.552;10.092;2023-05-19T11:00:39;5.05;;;1.77;;
72284;SDS011;60220;53.552;10.092;2023-05-19T11:03:11;4.57;;;1.63;;
72284;SDS011;60220;53.552;10.092;2023-05-19T11:05:38;5.72;;;2.78;;
72284;SDS011;60220;53.552;10.092;2023-05-19T11:08:05;2.85;;;1.15;;
72284;SDS011;60220;53.552;10.092;2023-05-19T11:10:32;2.20;;;0.65;;
72284;SDS011;60220;53.552;10.092;2023-05-19T11:12:59;1.92;;;0.70;;
72284;SDS011;60220;53.552;10.092;2023-05-19T11:15:26;2.47;;;1.20;;
72284;SDS011;60220;53.552;10.092;2023-05-19T11:17:54;5.20;;;1.67;;
72284;SDS011;60220;53.552;10.092;2023-05-19T11:20:21;2.58;;;1.02;;
72284;SDS011;60220;53.552;10.092;2023-05-19T11:23:03;5.53;;;1.85;;
72284;SDS011;60220;53.552;10.092;2023-05-19T11:25:40;5.63;;;0.93;;
72284;SDS011;60220;53.552;10.092;2023-05-19T11:28:09;5.20;;;1.83;;
72284;SDS011;60220;53.552;10.092;2023-05-19T11:30:37;2.75;;;0.68;;
72284;SDS011;60220;53.552;10.092;2023-05-19T11:33:06;4.07;;;0.85;;
72284;SDS011;60220;53.552;10.092;2023-05-19T11:35:33;2.80;;;1.10;;
72284;SDS011;60220;53.552;10.092;2023-05-19T11:38:00;2.33;;;1.10;;
72284;SDS011;60220;53.552;10.092;2023-05-19T11:40:27;2.58;;;0.70;;
72284;SDS011;60220;53.552;10.092;2023-05-19T11:42:54;3.75;;;0.93;;
72284;SDS011;60220;53.552;10.092;2023-05-19T11:45:23;3.25;;;1.17;;
72284;SDS011;60220;53.552;10.092;2023-05-19T11:47:50;2.15;;;1.00;;
72284;SDS011;60220;53.552;10.092;2023-05-19T11:50:18;2.85;;;1.15;;
72284;SDS011;60220;53.552;10.092;2023-05-19T11:52:50;2.15;;;0.85;;
72284;SDS011;60220;53.552;10.092;2023-05-19T11:55:17;5.70;;;0.90;;
72284;SDS011;60220;53.552;10.092;2023-05-19T11:57:55;4.45;;;0.63;;
72284;SDS011;60220;53.552;10.092;2023-05-19T12:00:22;3.63;;;0.77;;
72284;SDS011;60220;53.552;10.092;2023-05-19T12:02:52;1.38;;;0.75;;
72284;SDS011;60220;53.552;10.092;2023-05-19T12:05:20;4.50;;;1.38;;
72284;SDS011;60220;53.552;10.092;2023-05-19T12:07:50;6.10;;;1.20;;
72284;SDS011;60220;53.552;10.092;2023-05-19T12:10:20;3.88;;;1.02;;
72284;SDS011;60220;53.552;10.092;2023-05-19T12:12:50;3.53;;;0.80;;
72284;SDS011;60220;53.552;10.092;2023-05-19T12:15:17;11.20;;;5.88;;
72284;SDS011;60220;53.552;10.092;2023-05-19T12:17:45;1.88;;;0.70;;
72284;SDS011;60220;53.552;10.092;2023-05-19T12:20:14;1.80;;;1.02;;
72284;SDS011;60220;53.552;10.092;2023-05-19T12:22:42;1.75;;;0.80;;
72284;SDS011;60220;53.552;10.092;2023-05-19T12:25:09;2.13;;;1.02;;
72284;SDS011;60220;53.552;10.092;2023-05-19T12:27:36;3.42;;;1.02;;
72284;SDS011;60220;53.552;10.092;2023-05-19T12:30:03;5.30;;;1.00;;
72284;SDS011;60220;53.552;10.092;2023-05-19T12:32:32;2.95;;;0.95;;
72284;SDS011;60220;53.552;10.092;2023-05-19T12:35:01;2.75;;;0.95;;
72284;SDS011;60220;53.552;10.092;2023-05-19T12:37:28;3.83;;;1.08;;
72284;SDS011;60220;53.552;10.092;2023-05-19T12:39:58;3.50;;;0.80;;
72284;SDS011;60220;53.552;10.092;2023-05-19T12:42:25;4.47;;;0.90;;
72284;SDS011;60220;53.552;10.092;2023-05-19T12:44:55;2.20;;;0.70;;
72284;SDS011;60220;53.552;10.092;2023-05-19T12:47:27;2.45;;;0.75;;
72284;SDS011;60220;53.552;10.092;2023-05-19T12:49:56;2.53;;;1.15;;
72284;SDS011;60220;53.552;10.092;2023-05-19T12:52:27;4.22;;;1.13;;
72284;SDS011;60220;53.552;10.092;2023-05-19T12:54:59;4.05;;;0.85;;
72284;SDS011;60220;53.552;10.092;2023-05-19T12:57:29;4.50;;;1.00;;
72284;SDS011;60220;53.552;10.092;2023-05-19T12:59:59;3.33;;;1.13;;
72284;SDS011;60220;53.552;10.092;2023-05-19T13:02:33;3.10;;;0.80;;
72284;SDS011;60220;53.552;10.092;2023-05-19T13:05:23;2.35;;;1.15;;
72284;SDS011;60220;53.552;10.092;2023-05-19T13:07:56;1.42;;;0.73;;
72284;SDS011;60220;53.552;10.092;2023-05-19T13:10:25;2.20;;;1.13;;
72284;SDS011;60220;53.552;10.092;2023-05-19T13:12:52;3.85;;;0.80;;
72284;SDS011;60220;53.552;10.092;2023-05-19T13:15:22;2.58;;;0.90;;
72284;SDS011;60220;53.552;10.092;2023-05-19T13:17:50;4.15;;;0.75;;
72284;SDS011;60220;53.552;10.092;2023-05-19T13:20:17;2.55;;;0.85;;
72284;SDS011;60220;53.552;10.092;2023-05-19T13:22:45;2.53;;;0.82;;
72284;SDS011;60220;53.552;10.092;2023-05-19T13:25:15;1.42;;;0.70;;
72284;SDS011;60220;53.552;10.092;2023-05-19T13:27:45;5.72;;;0.90;;
72284;SDS011;60220;53.552;10.092;2023-05-19T13:30:13;1.67;;;0.90;;
72284;SDS011;60220;53.552;10.092;2023-05-19T13:32:40;2.90;;;1.02;;
72284;SDS011;60220;53.552;10.092;2023-05-19T13:35:07;3.85;;;0.90;;
72284;SDS011;60220;53.552;10.092;2023-05-19T13:37:34;2.30;;;0.82;;
72284;SDS011;60220;53.552;10.092;2023-05-19T13:40:01;3.72;;;0.98;;
72284;SDS011;60220;53.552;10.092;2023-05-19T13:42:33;3.58;;;1.08;;
72284;SDS011;60220;53.552;10.092;2023-05-19T13:45:04;2.58;;;0.85;;
72284;SDS011;60220;53.552;10.092;2023-05-19T13:47:31;2.45;;;0.90;;
72284;SDS011;60220;53.552;10.092;2023-05-19T13:49:58;1.25;;;0.63;;
72284;SDS011;60220;53.552;10.092;2023-05-19T13:52:25;2.83;;;1.02;;
72284;SDS011;60220;53.552;10.092;2023-05-19T13:54:51;3.35;;;0.85;;
72284;SDS011;60220;53.552;10.092;2023-05-19T13:57:20;2.67;;;0.80;;
72284;SDS011;60220;53.552;10.092;2023-05-19T13:59:48;1.50;;;0.60;;
72284;SDS011;60220;53.552;10.092;2023-05-19T14:02:16;4.00;;;0.80;;
72284;SDS011;60220;53.552;10.092;2023-05-19T14:04:43;3.85;;;1.45;;
72284;SDS011;60220;53.552;10.092;2023-05-19T14:07:10;2.60;;;1.00;;
72284;SDS011;60220;53.552;10.092;2023-05-19T14:09:37;1.23;;;0.70;;
72284;SDS011;60220;53.552;10.092;2023-05-19T14:12:04;3.03;;;0.90;;
72284;SDS011;60220;53.552;10.092;2023-05-19T14:14:31;6.95;;;1.00;;
72284;SDS011;60220;53.552;10.092;2023-05-19T14:16:57;1.67;;;0.80;;
72284;SDS011;60220;53.552;10.092;2023-05-19T14:19:25;1.80;;;0.60;;
72284;SDS011;60220;53.552;10.092;2023-05-19T14:21:54;2.67;;;0.73;;
72284;SDS011;60220;53.552;10.092;2023-05-19T14:24:21;4.90;;;1.23;;
72284;SDS011;60220;53.552;10.092;2023-05-19T14:26:50;4.03;;;0.70;;
72284;SDS011;60220;53.552;10.092;2023-05-19T14:29:17;0.90;;;0.50;;
72284;SDS011;60220;53.552;10.092;2023-05-19T14:31:44;2.78;;;0.90;;
72284;SDS011;60220;53.552;10.092;2023-05-19T14:34:10;1.38;;;0.82;;
72284;SDS011;60220;53.552;10.092;2023-05-19T14:36:43;2.13;;;0.82;;
72284;SDS011;60220;53.552;10.092;2023-05-19T14:39:09;1.50;;;0.70;;
72284;SDS011;60220;53.552;10.092;2023-05-19T14:41:36;1.92;;;0.68;;
72284;SDS011;60220;53.552;10.092;2023-05-19T14:44:05;1.20;;;0.52;;
72284;SDS011;60220;53.552;10.092;2023-05-19T14:46:32;5.20;;;1.50;;